createdAt,value
2023-03-22T00:01:31.075Z,9.88
2023-03-22T00:03:58.542Z,9.75
2023-03-22T00:06:26.651Z,9.69
2023-03-22T00:08:54.374Z,9.63
2023-03-22T00:11:24.316Z,9.56
2023-03-22T00:13:52.717Z,9.50
2023-03-22T00:16:20.739Z,9.44
2023-03-22T00:18:47.448Z,9.50
2023-03-22T00:21:16.709Z,9.50
2023-03-22T00:23:44.494Z,9.44
2023-03-22T00:26:13.304Z,9.50
2023-03-22T00:28:40.740Z,9.44
2023-03-22T00:31:07.973Z,9.44
2023-03-22T00:33:35.372Z,9.44
2023-03-22T00:36:10.753Z,9.38
2023-03-22T00:38:43.001Z,9.31
2023-03-22T00:41:17.547Z,9.31
2023-03-22T00:43:45.168Z,9.25
2023-03-22T00:46:12.559Z,9.31
2023-03-22T00:48:39.820Z,9.31
2023-03-22T00:51:07.667Z,9.31
2023-03-22T00:53:36.340Z,9.31
2023-03-22T00:56:05.002Z,9.19
2023-03-22T00:58:31.974Z,9.13
2023-03-22T01:00:58.610Z,9.13
2023-03-22T01:03:25.738Z,9.19
2023-03-22T01:05:55.527Z,9.13
2023-03-22T01:08:23.915Z,9.06
2023-03-22T01:10:51.297Z,9.13
2023-03-22T01:13:18.191Z,9.13
2023-03-22T01:15:45.208Z,9.13
2023-03-22T01:18:11.782Z,9.13
2023-03-22T01:20:38.790Z,9.13
2023-03-22T01:23:06.206Z,9.19
2023-03-22T01:25:33.106Z,9.13
2023-03-22T01:28:02.218Z,9.06
2023-03-22T01:30:29.678Z,9.13
2023-03-22T01:32:56.293Z,9.13
2023-03-22T01:35:22.948Z,9.06
2023-03-22T01:37:49.705Z,9.06
2023-03-22T01:40:16.493Z,9.06
2023-03-22T01:42:43.116Z,8.94
2023-03-22T01:45:16.711Z,9.06
2023-03-22T01:47:51.736Z,9.00
2023-03-22T01:50:19.629Z,9.13
2023-03-22T01:52:46.902Z,9.00
2023-03-22T01:55:13.887Z,9.00
2023-03-22T01:57:43.772Z,9.06
2023-03-22T02:00:18.843Z,9.13
2023-03-22T02:02:50.414Z,9.06
2023-03-22T02:05:19.062Z,9.13
2023-03-22T02:07:46.044Z,9.13
2023-03-22T02:10:16.388Z,9.13
2023-03-22T02:13:07.610Z,9.13
2023-03-22T02:15:47.256Z,9.25
2023-03-22T02:18:39.822Z,9.25
2023-03-22T02:21:12.133Z,9.25
2023-03-22T02:24:20.721Z,9.19
2023-03-22T02:26:59.232Z,9.19
2023-03-22T02:29:52.692Z,9.13
2023-03-22T02:32:56.811Z,9.13
2023-03-22T02:35:40.245Z,9.06
2023-03-22T02:38:09.785Z,9.13
2023-03-22T02:40:42.291Z,9.19
2023-03-22T02:43:14.834Z,9.19
2023-03-22T02:45:52.334Z,9.25
2023-03-22T02:48:54.430Z,9.25
2023-03-22T02:51:33.976Z,9.38
2023-03-22T02:54:23.233Z,9.31
2023-03-22T02:57:09.962Z,9.38
2023-03-22T02:59:41.562Z,9.31
2023-03-22T03:02:13.201Z,9.50
2023-03-22T03:04:47.910Z,9.50
2023-03-22T03:07:21.802Z,9.50
2023-03-22T03:09:50.811Z,9.63
2023-03-22T03:12:24.803Z,9.50
2023-03-22T03:14:51.673Z,9.69
2023-03-22T03:18:01.292Z,9.69
2023-03-22T03:20:55.759Z,9.63
2023-03-22T03:23:45.954Z,9.63
2023-03-22T03:26:16.115Z,9.69
2023-03-22T03:29:14.475Z,9.75
2023-03-22T03:31:49.718Z,9.69
2023-03-22T03:34:29.278Z,9.75
2023-03-22T03:37:06.219Z,9.69
2023-03-22T03:39:38.676Z,9.75
2023-03-22T03:42:11.205Z,9.75
2023-03-22T03:44:39.316Z,9.81
2023-03-22T03:47:09.238Z,9.94
2023-03-22T03:49:36.079Z,9.94
2023-03-22T03:52:04.825Z,10.00
2023-03-22T03:54:31.831Z,9.94
2023-03-22T03:56:58.563Z,9.94
2023-03-22T03:59:25.342Z,9.94
2023-03-22T04:01:52.681Z,9.94
2023-03-22T04:04:29.056Z,10.00
2023-03-22T04:06:58.643Z,10.06
2023-03-22T04:09:27.904Z,10.00
2023-03-22T04:11:56.073Z,10.00
2023-03-22T04:14:24.090Z,9.88
2023-03-22T04:16:50.872Z,9.94
2023-03-22T04:19:18.173Z,10.06
2023-03-22T04:21:45.834Z,10.00
2023-03-22T04:24:14.066Z,10.06
2023-03-22T04:26:41.207Z,10.00
2023-03-22T04:29:07.819Z,10.00
2023-03-22T04:31:36.742Z,10.06
2023-03-22T04:34:06.081Z,10.06
2023-03-22T04:36:36.573Z,10.00
2023-03-22T04:39:09.454Z,10.06
2023-03-22T04:41:37.128Z,10.06
2023-03-22T04:44:05.517Z,10.06
2023-03-22T04:46:34.539Z,10.06
2023-03-22T04:49:01.503Z,10.13
2023-03-22T04:51:28.954Z,10.06
2023-03-22T04:53:55.631Z,10.00
2023-03-22T04:56:22.612Z,10.06
2023-03-22T04:58:49.366Z,10.06
2023-03-22T05:01:18.171Z,10.06
2023-03-22T05:03:47.271Z,10.06
2023-03-22T05:06:14.977Z,10.00
2023-03-22T05:08:42.283Z,10.06
2023-03-22T05:11:13.413Z,10.00
2023-03-22T05:13:40.781Z,10.00
2023-03-22T05:16:08.408Z,10.00
2023-03-22T05:18:38.025Z,9.94
2023-03-22T05:21:06.723Z,9.94
2023-03-22T05:23:33.397Z,9.88
2023-03-22T05:26:01.647Z,9.94
2023-03-22T05:28:28.584Z,9.94
2023-03-22T05:30:57.111Z,9.81
2023-03-22T05:33:23.927Z,9.94
2023-03-22T05:35:51.190Z,9.94
2023-03-22T05:38:18.013Z,9.94
2023-03-22T05:40:45.439Z,9.88
2023-03-22T05:43:13.012Z,9.81
2023-03-22T05:45:39.701Z,9.75
2023-03-22T05:48:07.007Z,9.81
2023-03-22T05:50:34.112Z,9.69
2023-03-22T05:53:02.120Z,9.81
2023-03-22T05:55:31.907Z,9.69
2023-03-22T05:57:59.813Z,9.75
2023-03-22T06:00:27.113Z,9.75
2023-03-22T06:02:56.396Z,9.69
2023-03-22T06:05:23.469Z,9.75
2023-03-22T06:07:50.254Z,9.63
2023-03-22T06:10:18.211Z,9.69
2023-03-22T06:12:45.310Z,9.75
2023-03-22T06:15:12.363Z,9.75
2023-03-22T06:17:38.998Z,9.88
2023-03-22T06:20:09.389Z,9.88
2023-03-22T06:22:36.235Z,9.81
2023-03-22T06:25:03.168Z,9.81
2023-03-22T06:27:29.874Z,9.88
2023-03-22T06:29:56.465Z,9.94
2023-03-22T06:32:26.761Z,9.88
2023-03-22T06:34:56.706Z,9.94
2023-03-22T06:37:24.333Z,10.44
2023-03-22T06:39:51.825Z,10.63
2023-03-22T06:42:18.713Z,10.81
2023-03-22T06:44:45.300Z,10.75
2023-03-22T06:47:12.049Z,10.50
2023-03-22T06:49:39.101Z,10.44
2023-03-22T06:52:06.113Z,10.44
2023-03-22T06:54:32.839Z,10.56
2023-03-22T06:56:59.426Z,10.44
2023-03-22T06:59:26.075Z,10.38
2023-03-22T07:01:52.683Z,10.44
2023-03-22T07:04:20.091Z,10.44
2023-03-22T07:06:47.158Z,10.44
2023-03-22T07:09:13.742Z,10.44
2023-03-22T07:11:40.369Z,10.44
2023-03-22T07:14:07.013Z,10.44
2023-03-22T07:16:33.670Z,10.44
2023-03-22T07:19:00.805Z,10.44
2023-03-22T07:21:27.449Z,10.50
2023-03-22T07:23:55.155Z,10.44
2023-03-22T07:26:21.946Z,10.50
2023-03-22T07:28:48.600Z,10.50
2023-03-22T07:31:16.140Z,10.56
2023-03-22T07:33:43.056Z,10.56
2023-03-22T07:36:10.584Z,10.63
2023-03-22T07:38:37.756Z,10.69
2023-03-22T07:41:05.360Z,10.69
2023-03-22T07:43:35.415Z,10.69
2023-03-22T07:46:05.846Z,10.69
2023-03-22T07:48:32.638Z,10.81
2023-03-22T07:50:59.309Z,10.81
2023-03-22T07:53:26.550Z,10.81
2023-03-22T07:55:53.729Z,10.75
2023-03-22T07:58:20.468Z,10.75
2023-03-22T08:00:49.574Z,10.81
2023-03-22T08:03:16.269Z,10.88
2023-03-22T08:05:43.652Z,10.94
2023-03-22T08:08:10.801Z,11.00
2023-03-22T08:10:37.806Z,11.19
2023-03-22T08:13:04.640Z,11.19
2023-03-22T08:15:31.433Z,11.44
2023-03-22T08:17:58.486Z,11.31
2023-03-22T08:20:27.184Z,11.31
2023-03-22T08:22:54.915Z,11.19
2023-03-22T08:25:22.181Z,11.31
2023-03-22T08:27:48.758Z,11.25
2023-03-22T08:30:16.030Z,11.31
2023-03-22T08:32:42.726Z,11.25
2023-03-22T08:35:09.902Z,11.25
2023-03-22T08:37:36.508Z,11.31
2023-03-22T08:40:07.280Z,11.25
2023-03-22T08:42:33.953Z,11.25
2023-03-22T08:45:00.592Z,11.25
2023-03-22T08:47:27.158Z,11.44
2023-03-22T08:49:53.751Z,11.44
2023-03-22T08:52:20.330Z,11.56
2023-03-22T08:54:46.968Z,11.75
2023-03-22T08:57:14.315Z,11.69
2023-03-22T08:59:41.009Z,11.63
2023-03-22T09:02:08.995Z,11.75
2023-03-22T09:04:36.070Z,11.56
2023-03-22T09:07:02.913Z,11.44
2023-03-22T09:09:29.748Z,11.50
2023-03-22T09:11:56.406Z,11.50
2023-03-22T09:14:23.030Z,11.50
2023-03-22T09:16:49.650Z,11.44
2023-03-22T09:19:16.564Z,11.44
2023-03-22T09:21:43.474Z,11.44
2023-03-22T09:24:10.447Z,11.38
2023-03-22T09:26:37.534Z,11.31
2023-03-22T09:29:04.276Z,11.25
2023-03-22T09:31:31.155Z,11.31
2023-03-22T09:33:57.826Z,11.25
2023-03-22T09:36:24.618Z,11.13
2023-03-22T09:38:51.290Z,11.06
2023-03-22T09:41:44.195Z,11.00
2023-03-22T09:44:26.214Z,10.63
2023-03-22T09:46:55.561Z,10.63
2023-03-22T09:49:43.644Z,10.56
2023-03-22T09:52:18.177Z,10.31
2023-03-22T09:54:47.122Z,10.25
2023-03-22T09:57:36.421Z,10.38
2023-03-22T10:00:16.842Z,10.38
2023-03-22T10:02:49.835Z,10.31
2023-03-22T10:05:25.592Z,10.25
2023-03-22T10:08:16.670Z,10.25
2023-03-22T10:10:43.843Z,10.19
2023-03-22T10:13:17.873Z,10.25
2023-03-22T10:15:52.178Z,10.31
2023-03-22T10:18:23.152Z,10.31
2023-03-22T10:21:00.573Z,10.38
2023-03-22T10:23:36.978Z,10.38
2023-03-22T10:26:06.545Z,10.38
2023-03-22T10:28:41.256Z,10.44
2023-03-22T10:31:17.493Z,10.50
2023-03-22T10:34:03.563Z,10.50
2023-03-22T10:36:34.827Z,10.50
2023-03-22T10:39:25.221Z,10.50
2023-03-22T10:41:57.894Z,10.50
2023-03-22T10:44:28.608Z,10.44
2023-03-22T10:46:59.920Z,10.50
2023-03-22T10:49:38.133Z,10.44
2023-03-22T10:52:14.569Z,10.38
2023-03-22T10:54:41.287Z,10.38
2023-03-22T10:57:07.878Z,10.38
2023-03-22T11:00:08.231Z,10.44
2023-03-22T11:02:35.004Z,10.44
2023-03-22T11:05:05.214Z,10.44
2023-03-22T11:07:34.682Z,10.50
2023-03-22T11:10:10.196Z,10.50
2023-03-22T11:12:50.428Z,10.50
2023-03-22T11:15:32.347Z,10.56
2023-03-22T11:18:04.659Z,10.63
2023-03-22T11:20:33.859Z,10.69
2023-03-22T11:23:05.189Z,10.69
2023-03-22T11:25:35.764Z,10.69
2023-03-22T11:28:05.291Z,10.69
2023-03-22T11:30:33.804Z,10.69
2023-03-22T11:33:14.425Z,10.75
2023-03-22T11:35:46.102Z,10.75
2023-03-22T11:38:37.634Z,10.81
2023-03-22T11:41:28.607Z,10.88
2023-03-22T11:44:04.454Z,10.88
2023-03-22T11:46:33.311Z,10.88
2023-03-22T11:49:08.103Z,10.88
2023-03-22T11:51:38.603Z,10.94
2023-03-22T11:54:16.701Z,10.94
2023-03-22T11:56:47.816Z,11.00
2023-03-22T11:59:24.683Z,10.94
2023-03-22T12:01:59.966Z,11.00
2023-03-22T12:04:31.653Z,10.94
2023-03-22T12:07:03.342Z,11.00
2023-03-22T12:10:14.344Z,11.00
2023-03-22T12:12:52.258Z,11.06
2023-03-22T12:15:31.470Z,11.06
2023-03-22T12:18:10.487Z,11.06
2023-03-22T12:20:39.844Z,11.13
2023-03-22T12:23:15.991Z,11.13
2023-03-22T12:25:52.929Z,11.06
2023-03-22T12:28:25.949Z,11.13
2023-03-22T12:30:56.463Z,11.19
2023-03-22T12:33:35.147Z,11.19
2023-03-22T12:36:05.327Z,11.19
2023-03-22T12:38:43.908Z,11.19
2023-03-22T12:41:18.823Z,11.19
2023-03-22T12:44:28.968Z,11.25
2023-03-22T12:47:06.643Z,11.19
2023-03-22T12:49:48.784Z,11.25
2023-03-22T12:52:19.366Z,11.25
2023-03-22T12:54:49.246Z,11.25
2023-03-22T12:57:17.161Z,11.25
2023-03-22T12:59:48.055Z,11.25
2023-03-22T13:02:30.103Z,11.31
2023-03-22T13:05:04.801Z,11.31
2023-03-22T13:07:38.773Z,11.31
2023-03-22T13:10:30.017Z,11.31
2023-03-22T13:13:32.957Z,11.25
2023-03-22T13:16:15.057Z,11.25
2023-03-22T13:18:45.195Z,11.31
2023-03-22T13:21:16.419Z,11.31
2023-03-22T13:24:15.286Z,11.31
2023-03-22T13:26:58.838Z,11.38
2023-03-22T13:29:38.033Z,11.31
2023-03-22T13:32:29.815Z,11.38
2023-03-22T13:34:57.229Z,11.44
2023-03-22T13:37:35.106Z,11.44
2023-03-22T13:40:27.770Z,11.44
2023-03-22T13:42:54.430Z,11.44
2023-03-22T13:45:33.712Z,11.38
2023-03-22T13:48:26.517Z,11.38
2023-03-22T13:50:54.203Z,11.31
2023-03-22T13:53:30.380Z,11.31
2023-03-22T13:55:58.504Z,11.25
2023-03-22T13:58:25.029Z,11.25
2023-03-22T14:00:55.996Z,11.25
2023-03-22T14:03:36.005Z,11.31
2023-03-22T14:06:31.812Z,11.25
2023-03-22T14:09:11.707Z,11.25
2023-03-22T14:11:44.941Z,11.31
2023-03-22T14:14:18.981Z,11.25
2023-03-22T14:16:50.651Z,11.31
2023-03-22T14:19:29.063Z,11.31
